Barfleur — FNIE — position and weather

sailwx.info

Track history (hours):
 
Tides and Currents Weather Stations Pressure Air Temp Water Temp Dewpoint Dewpoint Depression Visibility Wind Speed Wind Dir Waves Ship Positions

Barfleur

Operator: Brittany Ferries

Last reported at 2020-Jan-28 00:00 UTC. Time now 2020-Jan-28 20:16 UTC.
Position N 49°44' W 001°41'.

Length 158 m; draft 5 m.

Type: Ship. MMSI: 227289000.

Date/timePositionNaut miles runAvg speedWind from/ knotsBaromVisibWave heightAir tempDewpointWater temp
2020-Jan-28 00:00N 49°44' W 001°41'5 2.3
2020-Jan-27 21:56N 49°44' W 001°48'8 0.9
2020-Jan-27 12:30N 49°40' W 001°37'613.1
2020-Jan-27 12:00N 49°45' W 001°43'1017.7
2020-Jan-27 11:25N 49°55' W 001°43'48 8.9
2020-Jan-27 06:00N 50°42' W 001°59'0 0.0
2020-Jan-27 04:00N 50°42' W 001°59'0 0.0
2020-Jan-27 01:30N 50°42' W 001°59'0 0.0
2020-Jan-26 22:30N 50°42' W 001°59'0 0.0
2020-Jan-26 22:00N 50°42' W 001°59'0 0.2
2020-Jan-26 21:30N 50°42' W 001°60'5616.3
2020-Jan-26 18:05N 49°48' W 001°42'118.5
2020-Jan-26 18:00N 49°46' W 001°41'1 0.1
2020-Jan-26 12:01N 49°45' W 001°41'1816.2
2020-Jan-26 10:53N 50°03' W 001°46'2317.7
2020-Jan-26 09:36N 50°26' W 001°51'218.1
2020-Jan-26 09:30N 50°28' W 001°51'16 3.9
2020-Jan-26 05:30N 50°42' W 001°59'0 0.0
2020-Jan-26 01:30N 50°42' W 001°59'0 0.0
2020-Jan-26 01:00N 50°42' W 001°59'0 0.0
2020-Jan-25 22:30N 50°42' W 001°59'5712.8
2020-Jan-25 18:02N 49°47' W 001°42'116.9
2020-Jan-25 18:00N 49°46' W 001°42'6 1.0
2020-Jan-25 12:24N 49°40' W 001°39'615.7
2020-Jan-25 12:00N 49°46' W 001°42'916.9
2020-Jan-25 11:30N 49°55' W 001°45'4913.7
2020-Jan-25 07:57N 50°42' W 001°59'0 0.0
2020-Jan-25 07:30N 50°42' W 001°59'0 0.0
2020-Jan-25 03:30N 50°42' W 001°59'0 0.0
2020-Jan-25 01:00N 50°42' W 001°59'0 0.0
2020-Jan-25 00:30N 50°42' W 001°59'0 0.0
2020-Jan-24 23:00N 50°42' W 001°59'13 5.0
2020-Jan-24 20:30N 50°31' W 001°51'46 5.4
2020-Jan-24 12:00N 49°46' W 001°43'4017.5
2020-Jan-24 09:41N 50°26' W 001°51'17 7.8
2020-Jan-24 07:28N 50°42' W 001°59'0 0.0
2020-Jan-24 07:00N 50°42' W 001°59'0 0.0
2020-Jan-24 03:30N 50°42' W 001°59'0 0.0
2020-Jan-24 02:30N 50°42' W 001°59'0 0.0
2020-Jan-24 00:30N 50°42' W 001°59'0 0.0
2020-Jan-23 23:30N 50°42' W 001°59'0 0.0
2020-Jan-23 22:00N 50°42' W 001°59'63 6.6
2020-Jan-23 12:24N 49°40' W 001°39'2717.8
2020-Jan-23 10:53N 50°07' W 001°44'2018.8
2020-Jan-23 09:49N 50°27' W 001°49'12 3.2
2020-Jan-23 06:00N 50°39' W 001°55'611.2
2020-Jan-23 05:30N 50°33' W 001°53'55 3.2
2020-Jan-22 12:36N 49°39' W 001°37'2715.2
2020-Jan-22 10:52N 50°05' W 001°47'3318.0
2020-Jan-22 09:00N 50°38' W 001°54'611.3
2020-Jan-22 08:30N 50°42' W 001°59'38 7.9
2020-Jan-22 03:39N 50°05' W 001°47'22 5.9
2020-Jan-22 00:00N 49°43' W 001°42'5 0.4
2020-Jan-21 12:34N 49°40' W 001°37'6412.7
2020-Jan-21 07:30N 50°42' W 001°59'0 0.0
2020-Jan-21 07:01N 50°42' W 001°59'5613.7
2020-Jan-21 02:54N 49°47' W 001°46'2 1.5
2020-Jan-21 01:30N 49°47' W 001°50'0 0.1
2020-Jan-21 01:00N 49°47' W 001°50'9 2.3
2020-Jan-20 20:59N 49°40' W 001°39'5 0.6
2020-Jan-20 12:00N 49°46' W 001°40'4517.9
2020-Jan-20 09:31N 50°30' W 001°48'917.6
2020-Jan-20 09:00N 50°38' W 001°54'6 2.8
2020-Jan-20 06:58N 50°42' W 001°59'0 0.0
2020-Jan-20 05:58N 50°42' W 001°59'0 0.0
2020-Jan-20 05:28N 50°42' W 001°59'0 0.0
2020-Jan-20 04:58N 50°42' W 001°59'0 0.0
2020-Jan-20 03:28N 50°42' W 001°59'0 0.0
2020-Jan-20 02:29N 50°42' W 001°59'0 0.0
2020-Jan-20 01:29N 50°42' W 001°59'0 0.0
2020-Jan-20 00:59N 50°42' W 001°59'0 0.0
2020-Jan-19 23:29N 50°42' W 001°59'4 1.7
2020-Jan-19 21:00N 50°39' W 001°55'35 3.3
2020-Jan-19 10:38N 50°05' W 001°43'3717.6
2020-Jan-19 08:31N 50°42' W 001°57'2 0.9
2020-Jan-19 06:30N 50°42' W 001°59'0 0.0
2020-Jan-19 04:30N 50°42' W 001°59'0 0.0
2020-Jan-19 03:30N 50°42' W 001°59'0 0.0
2020-Jan-19 00:56N 50°42' W 001°59'0 0.0
2020-Jan-19 00:30N 50°42' W 001°59'0 0.0
2020-Jan-18 21:59N 50°42' W 001°59'0 0.5
2020-Jan-18 21:30N 50°42' W 001°59'1312.6
2020-Jan-18 20:30N 50°31' W 001°51'4618.3
2020-Jan-18 18:00N 49°46' W 001°37'713.9
2020-Jan-18 17:30N 49°39' W 001°37'30 4.3
2020-Jan-18 10:30N 50°08' W 001°46'35 8.8
2020-Jan-18 06:30N 50°42' W 001°59'0 0.0
2020-Jan-18 06:00N 50°42' W 001°59'0 0.0
2020-Jan-18 04:00N 50°42' W 001°59'0 0.0
2020-Jan-18 02:00N 50°42' W 001°59'0 0.0
2020-Jan-18 01:00N 50°42' W 001°59'  
Track history (hours):
 
Tides and Currents Weather Stations Pressure Air Temp Water Temp Dewpoint Dewpoint Depression Visibility Wind Speed Wind Dir Waves Ship Positions

Barfleur

Operator: Brittany Ferries

Last reported at 2020-Jan-28 00:00 UTC. Time now 2020-Jan-28 20:16 UTC.
Position N 49°44' W 001°41'.

Length 158 m; draft 5 m.

Type: Ship. MMSI: 227289000.

Date/timePositionNaut miles runAvg speedWind from/ knotsBaromVisibWave heightAir tempDewpointWater temp
2020-Jan-28 00:00N 49°44' W 001°41'5 2.3
2020-Jan-27 21:56N 49°44' W 001°48'8 0.9
2020-Jan-27 12:30N 49°40' W 001°37'613.1
2020-Jan-27 12:00N 49°45' W 001°43'1017.7
2020-Jan-27 11:25N 49°55' W 001°43'48 8.9
2020-Jan-27 06:00N 50°42' W 001°59'0 0.0
2020-Jan-27 04:00N 50°42' W 001°59'0 0.0
2020-Jan-27 01:30N 50°42' W 001°59'0 0.0
2020-Jan-26 22:30N 50°42' W 001°59'0 0.0
2020-Jan-26 22:00N 50°42' W 001°59'0 0.2
2020-Jan-26 21:30N 50°42' W 001°60'5616.3
2020-Jan-26 18:05N 49°48' W 001°42'118.5
2020-Jan-26 18:00N 49°46' W 001°41'1 0.1
2020-Jan-26 12:01N 49°45' W 001°41'1816.2
2020-Jan-26 10:53N 50°03' W 001°46'2317.7
2020-Jan-26 09:36N 50°26' W 001°51'218.1
2020-Jan-26 09:30N 50°28' W 001°51'16 3.9
2020-Jan-26 05:30N 50°42' W 001°59'0 0.0
2020-Jan-26 01:30N 50°42' W 001°59'0 0.0
2020-Jan-26 01:00N 50°42' W 001°59'0 0.0
2020-Jan-25 22:30N 50°42' W 001°59'5712.8
2020-Jan-25 18:02N 49°47' W 001°42'116.9
2020-Jan-25 18:00N 49°46' W 001°42'6 1.0
2020-Jan-25 12:24N 49°40' W 001°39'615.7
2020-Jan-25 12:00N 49°46' W 001°42'916.9
2020-Jan-25 11:30N 49°55' W 001°45'4913.7
2020-Jan-25 07:57N 50°42' W 001°59'0 0.0
2020-Jan-25 07:30N 50°42' W 001°59'0 0.0
2020-Jan-25 03:30N 50°42' W 001°59'0 0.0
2020-Jan-25 01:00N 50°42' W 001°59'0 0.0
2020-Jan-25 00:30N 50°42' W 001°59'0 0.0
2020-Jan-24 23:00N 50°42' W 001°59'13 5.0
2020-Jan-24 20:30N 50°31' W 001°51'46 5.4
2020-Jan-24 12:00N 49°46' W 001°43'4017.5
2020-Jan-24 09:41N 50°26' W 001°51'17 7.8
2020-Jan-24 07:28N 50°42' W 001°59'0 0.0
2020-Jan-24 07:00N 50°42' W 001°59'0 0.0
2020-Jan-24 03:30N 50°42' W 001°59'0 0.0
2020-Jan-24 02:30N 50°42' W 001°59'0 0.0
2020-Jan-24 00:30N 50°42' W 001°59'0 0.0
2020-Jan-23 23:30N 50°42' W 001°59'0 0.0
2020-Jan-23 22:00N 50°42' W 001°59'63 6.6
2020-Jan-23 12:24N 49°40' W 001°39'2717.8
2020-Jan-23 10:53N 50°07' W 001°44'2018.8
2020-Jan-23 09:49N 50°27' W 001°49'12 3.2
2020-Jan-23 06:00N 50°39' W 001°55'611.2
2020-Jan-23 05:30N 50°33' W 001°53'55 3.2
2020-Jan-22 12:36N 49°39' W 001°37'2715.2
2020-Jan-22 10:52N 50°05' W 001°47'3318.0
2020-Jan-22 09:00N 50°38' W 001°54'611.3
2020-Jan-22 08:30N 50°42' W 001°59'38 7.9
2020-Jan-22 03:39N 50°05' W 001°47'22 5.9
2020-Jan-22 00:00N 49°43' W 001°42'5 0.4
2020-Jan-21 12:34N 49°40' W 001°37'6412.7
2020-Jan-21 07:30N 50°42' W 001°59'0 0.0
2020-Jan-21 07:01N 50°42' W 001°59'5613.7
2020-Jan-21 02:54N 49°47' W 001°46'2 1.5
2020-Jan-21 01:30N 49°47' W 001°50'0 0.1
2020-Jan-21 01:00N 49°47' W 001°50'9 2.3
2020-Jan-20 20:59N 49°40' W 001°39'5 0.6
2020-Jan-20 12:00N 49°46' W 001°40'4517.9
2020-Jan-20 09:31N 50°30' W 001°48'917.6
2020-Jan-20 09:00N 50°38' W 001°54'6 2.8
2020-Jan-20 06:58N 50°42' W 001°59'0 0.0
2020-Jan-20 05:58N 50°42' W 001°59'0 0.0
2020-Jan-20 05:28N 50°42' W 001°59'0 0.0
2020-Jan-20 04:58N 50°42' W 001°59'0 0.0
2020-Jan-20 03:28N 50°42' W 001°59'0 0.0
2020-Jan-20 02:29N 50°42' W 001°59'0 0.0
2020-Jan-20 01:29N 50°42' W 001°59'0 0.0
2020-Jan-20 00:59N 50°42' W 001°59'0 0.0
2020-Jan-19 23:29N 50°42' W 001°59'4 1.7
2020-Jan-19 21:00N 50°39' W 001°55'35 3.3
2020-Jan-19 10:38N 50°05' W 001°43'3717.6
2020-Jan-19 08:31N 50°42' W 001°57'2 0.9
2020-Jan-19 06:30N 50°42' W 001°59'0 0.0
2020-Jan-19 04:30N 50°42' W 001°59'0 0.0
2020-Jan-19 03:30N 50°42' W 001°59'0 0.0
2020-Jan-19 00:56N 50°42' W 001°59'0 0.0
2020-Jan-19 00:30N 50°42' W 001°59'0 0.0
2020-Jan-18 21:59N 50°42' W 001°59'0 0.5
2020-Jan-18 21:30N 50°42' W 001°59'1312.6
2020-Jan-18 20:30N 50°31' W 001°51'4618.3
2020-Jan-18 18:00N 49°46' W 001°37'713.9
2020-Jan-18 17:30N 49°39' W 001°37'30 4.3
2020-Jan-18 10:30N 50°08' W 001°46'35 8.8
2020-Jan-18 06:30N 50°42' W 001°59'0 0.0
2020-Jan-18 06:00N 50°42' W 001°59'0 0.0
2020-Jan-18 04:00N 50°42' W 001°59'0 0.0
2020-Jan-18 02:00N 50°42' W 001°59'0 0.0
2020-Jan-18 01:00N 50°42' W 001°59'  

Dump ship's entire track history